sensor_id;sensor_type;location;lat;lon;timestamp;P1;durP1;ratioP1;P2;durP2;ratioP2
33553;SDS011;19885;42.208;24.952;2022-07-01T00:02:12;2.00;;;1.77;;
33553;SDS011;19885;42.208;24.952;2022-07-01T00:04:38;2.67;;;1.80;;
33553;SDS011;19885;42.208;24.952;2022-07-01T00:07:04;2.30;;;1.65;;
33553;SDS011;19885;42.208;24.952;2022-07-01T00:09:33;1.63;;;1.48;;
33553;SDS011;19885;42.208;24.952;2022-07-01T00:11:58;1.90;;;1.70;;
33553;SDS011;19885;42.208;24.952;2022-07-01T00:14:24;9.38;;;1.98;;
33553;SDS011;19885;42.208;24.952;2022-07-01T00:16:50;2.08;;;1.73;;
33553;SDS011;19885;42.208;24.952;2022-07-01T00:19:16;1.98;;;1.52;;
33553;SDS011;19885;42.208;24.952;2022-07-01T00:21:42;4.82;;;2.10;;
33553;SDS011;19885;42.208;24.952;2022-07-01T00:24:08;6.22;;;1.65;;
33553;SDS011;19885;42.208;24.952;2022-07-01T00:26:34;2.05;;;1.85;;
33553;SDS011;19885;42.208;24.952;2022-07-01T00:29:00;7.47;;;2.05;;
33553;SDS011;19885;42.208;24.952;2022-07-01T00:31:25;3.35;;;1.98;;
33553;SDS011;19885;42.208;24.952;2022-07-01T00:33:51;4.55;;;1.60;;
33553;SDS011;19885;42.208;24.952;2022-07-01T00:36:17;4.47;;;2.55;;
33553;SDS011;19885;42.208;24.952;2022-07-01T00:38:42;19.10;;;2.08;;
33553;SDS011;19885;42.208;24.952;2022-07-01T00:41:08;2.90;;;1.90;;
33553;SDS011;19885;42.208;24.952;2022-07-01T00:43:34;4.82;;;1.70;;
33553;SDS011;19885;42.208;24.952;2022-07-01T00:46:04;4.90;;;2.10;;
33553;SDS011;19885;42.208;24.952;2022-07-01T00:48:31;1.50;;;1.27;;
33553;SDS011;19885;42.208;24.952;2022-07-01T00:50:57;3.60;;;1.98;;
33553;SDS011;19885;42.208;24.952;2022-07-01T00:53:23;3.88;;;2.03;;
33553;SDS011;19885;42.208;24.952;2022-07-01T00:55:49;1.33;;;1.23;;
33553;SDS011;19885;42.208;24.952;2022-07-01T00:58:15;6.25;;;1.63;;
33553;SDS011;19885;42.208;24.952;2022-07-01T01:00:41;3.40;;;1.90;;
33553;SDS011;19885;42.208;24.952;2022-07-01T01:03:07;7.20;;;2.47;;
33553;SDS011;19885;42.208;24.952;2022-07-01T01:05:36;4.10;;;2.30;;
33553;SDS011;19885;42.208;24.952;2022-07-01T01:08:02;5.53;;;2.58;;
33553;SDS011;19885;42.208;24.952;2022-07-01T01:10:29;4.80;;;2.03;;
33553;SDS011;19885;42.208;24.952;2022-07-01T01:12:56;8.00;;;2.33;;
33553;SDS011;19885;42.208;24.952;2022-07-01T01:15:22;4.20;;;2.08;;
33553;SDS011;19885;42.208;24.952;2022-07-01T01:17:48;4.07;;;2.25;;
33553;SDS011;19885;42.208;24.952;2022-07-01T01:20:17;2.13;;;1.85;;
33553;SDS011;19885;42.208;24.952;2022-07-01T01:22:44;2.47;;;1.67;;
33553;SDS011;19885;42.208;24.952;2022-07-01T01:25:12;4.47;;;2.20;;
33553;SDS011;19885;42.208;24.952;2022-07-01T01:27:37;1.92;;;1.45;;
33553;SDS011;19885;42.208;24.952;2022-07-01T01:30:07;3.08;;;2.40;;
33553;SDS011;19885;42.208;24.952;2022-07-01T01:32:35;8.60;;;2.33;;
33553;SDS011;19885;42.208;24.952;2022-07-01T01:35:01;2.27;;;2.07;;
33553;SDS011;19885;42.208;24.952;2022-07-01T01:37:27;6.23;;;3.00;;
33553;SDS011;19885;42.208;24.952;2022-07-01T01:39:53;4.30;;;1.60;;
33553;SDS011;19885;42.208;24.952;2022-07-01T01:42:19;3.80;;;2.30;;
33553;SDS011;19885;42.208;24.952;2022-07-01T01:44:45;10.30;;;2.80;;
33553;SDS011;19885;42.208;24.952;2022-07-01T01:47:10;3.50;;;2.43;;
33553;SDS011;19885;42.208;24.952;2022-07-01T01:49:36;3.87;;;2.63;;
33553;SDS011;19885;42.208;24.952;2022-07-01T01:52:02;6.53;;;2.60;;
33553;SDS011;19885;42.208;24.952;2022-07-01T01:54:28;5.17;;;2.93;;
33553;SDS011;19885;42.208;24.952;2022-07-01T01:56:54;4.40;;;1.93;;
33553;SDS011;19885;42.208;24.952;2022-07-01T01:59:19;2.57;;;1.90;;
33553;SDS011;19885;42.208;24.952;2022-07-01T02:01:45;2.60;;;2.13;;
33553;SDS011;19885;42.208;24.952;2022-07-01T02:04:11;4.63;;;2.00;;
33553;SDS011;19885;42.208;24.952;2022-07-01T02:06:36;4.22;;;2.53;;
33553;SDS011;19885;42.208;24.952;2022-07-01T02:09:05;11.77;;;2.27;;
33553;SDS011;19885;42.208;24.952;2022-07-01T02:11:31;3.43;;;1.73;;
33553;SDS011;19885;42.208;24.952;2022-07-01T02:13:57;2.73;;;2.33;;
33553;SDS011;19885;42.208;24.952;2022-07-01T02:16:22;4.23;;;2.43;;
33553;SDS011;19885;42.208;24.952;2022-07-01T02:18:48;2.47;;;1.83;;
33553;SDS011;19885;42.208;24.952;2022-07-01T02:21:17;8.67;;;2.60;;
33553;SDS011;19885;42.208;24.952;2022-07-01T02:23:42;13.23;;;2.10;;
33553;SDS011;19885;42.208;24.952;2022-07-01T02:26:08;4.07;;;1.80;;
33553;SDS011;19885;42.208;24.952;2022-07-01T02:28:33;5.13;;;3.00;;
33553;SDS011;19885;42.208;24.952;2022-07-01T02:31:01;3.73;;;2.90;;
33553;SDS011;19885;42.208;24.952;2022-07-01T02:33:28;3.80;;;2.50;;
33553;SDS011;19885;42.208;24.952;2022-07-01T02:35:54;7.03;;;2.37;;
33553;SDS011;19885;42.208;24.952;2022-07-01T02:38:20;3.00;;;1.87;;
33553;SDS011;19885;42.208;24.952;2022-07-01T02:40:46;10.00;;;2.47;;
33553;SDS011;19885;42.208;24.952;2022-07-01T02:43:12;4.90;;;2.43;;
33553;SDS011;19885;42.208;24.952;2022-07-01T02:45:40;6.00;;;3.03;;
33553;SDS011;19885;42.208;24.952;2022-07-01T02:48:06;9.30;;;2.20;;
33553;SDS011;19885;42.208;24.952;2022-07-01T02:50:32;4.00;;;2.20;;
33553;SDS011;19885;42.208;24.952;2022-07-01T02:52:58;2.53;;;2.33;;
33553;SDS011;19885;42.208;24.952;2022-07-01T02:55:23;2.90;;;2.60;;
33553;SDS011;19885;42.208;24.952;2022-07-01T02:57:49;2.63;;;2.03;;
33553;SDS011;19885;42.208;24.952;2022-07-01T03:00:16;5.37;;;2.53;;
33553;SDS011;19885;42.208;24.952;2022-07-01T03:02:43;10.23;;;2.90;;
33553;SDS011;19885;42.208;24.952;2022-07-01T03:05:09;4.27;;;2.43;;
33553;SDS011;19885;42.208;24.952;2022-07-01T03:07:36;3.43;;;2.80;;
33553;SDS011;19885;42.208;24.952;2022-07-01T03:10:06;6.60;;;2.53;;
33553;SDS011;19885;42.208;24.952;2022-07-01T03:12:35;7.43;;;2.50;;
33553;SDS011;19885;42.208;24.952;2022-07-01T03:17:35;9.80;;;2.50;;
33553;SDS011;19885;42.208;24.952;2022-07-01T03:20:06;14.63;;;1.97;;
33553;SDS011;19885;42.208;24.952;2022-07-01T03:22:34;3.67;;;2.57;;
33553;SDS011;19885;42.208;24.952;2022-07-01T03:25:00;7.93;;;3.40;;
33553;SDS011;19885;42.208;24.952;2022-07-01T03:27:28;7.23;;;2.80;;
33553;SDS011;19885;42.208;24.952;2022-07-01T03:29:54;2.00;;;1.80;;
33553;SDS011;19885;42.208;24.952;2022-07-01T03:32:22;4.47;;;2.90;;
33553;SDS011;19885;42.208;24.952;2022-07-01T03:34:49;4.40;;;2.70;;
33553;SDS011;19885;42.208;24.952;2022-07-01T03:37:17;6.50;;;2.73;;
33553;SDS011;19885;42.208;24.952;2022-07-01T03:39:44;3.60;;;2.00;;
33553;SDS011;19885;42.208;24.952;2022-07-01T03:42:10;4.10;;;2.33;;
33553;SDS011;19885;42.208;24.952;2022-07-01T03:44:37;8.30;;;2.20;;
33553;SDS011;19885;42.208;24.952;2022-07-01T03:47:03;3.13;;;2.47;;
33553;SDS011;19885;42.208;24.952;2022-07-01T03:49:33;10.27;;;3.00;;
33553;SDS011;19885;42.208;24.952;2022-07-01T03:52:01;9.30;;;3.30;;
33553;SDS011;19885;42.208;24.952;2022-07-01T03:54:28;9.50;;;2.83;;
33553;SDS011;19885;42.208;24.952;2022-07-01T03:59:30;4.93;;;3.73;;
33553;SDS011;19885;42.208;24.952;2022-07-01T04:01:57;3.53;;;3.20;;
33553;SDS011;19885;42.208;24.952;2022-07-01T04:04:25;5.47;;;3.83;;
33553;SDS011;19885;42.208;24.952;2022-07-01T04:06:52;5.00;;;3.33;;
33553;SDS011;19885;42.208;24.952;2022-07-01T04:09:19;8.43;;;4.23;;
33553;SDS011;19885;42.208;24.952;2022-07-01T04:11:48;10.70;;;3.30;;
33553;SDS011;19885;42.208;24.952;2022-07-01T04:14:17;8.67;;;4.63;;
33553;SDS011;19885;42.208;24.952;2022-07-01T04:16:43;6.63;;;4.47;;
33553;SDS011;19885;42.208;24.952;2022-07-01T04:19:10;9.20;;;5.87;;
33553;SDS011;19885;42.208;24.952;2022-07-01T04:21:37;10.33;;;5.53;;
33553;SDS011;19885;42.208;24.952;2022-07-01T04:24:21;10.60;;;5.97;;
33553;SDS011;19885;42.208;24.952;2022-07-01T04:26:51;6.53;;;4.70;;
33553;SDS011;19885;42.208;24.952;2022-07-01T04:29:17;13.43;;;6.37;;
33553;SDS011;19885;42.208;24.952;2022-07-01T04:31:44;14.00;;;6.97;;
33553;SDS011;19885;42.208;24.952;2022-07-01T04:34:10;5.87;;;4.40;;
33553;SDS011;19885;42.208;24.952;2022-07-01T04:36:36;12.23;;;5.47;;
33553;SDS011;19885;42.208;24.952;2022-07-01T04:39:03;8.53;;;4.73;;
33553;SDS011;19885;42.208;24.952;2022-07-01T04:41:29;10.93;;;5.33;;
33553;SDS011;19885;42.208;24.952;2022-07-01T04:44:14;8.90;;;5.30;;
33553;SDS011;19885;42.208;24.952;2022-07-01T04:46:40;10.00;;;4.43;;
33553;SDS011;19885;42.208;24.952;2022-07-01T04:49:05;10.47;;;5.17;;
33553;SDS011;19885;42.208;24.952;2022-07-01T04:51:32;8.00;;;4.10;;
33553;SDS011;19885;42.208;24.952;2022-07-01T04:54:00;7.73;;;5.00;;
33553;SDS011;19885;42.208;24.952;2022-07-01T04:56:26;7.13;;;5.30;;
33553;SDS011;19885;42.208;24.952;2022-07-01T04:58:53;7.17;;;4.70;;
33553;SDS011;19885;42.208;24.952;2022-07-01T05:01:20;6.97;;;4.77;;
33553;SDS011;19885;42.208;24.952;2022-07-01T05:03:45;9.50;;;4.67;;
33553;SDS011;19885;42.208;24.952;2022-07-01T05:06:10;6.53;;;4.17;;
33553;SDS011;19885;42.208;24.952;2022-07-01T05:08:36;8.93;;;4.57;;
33553;SDS011;19885;42.208;24.952;2022-07-01T05:11:01;5.47;;;3.93;;
33553;SDS011;19885;42.208;24.952;2022-07-01T05:13:27;7.97;;;3.73;;
33553;SDS011;19885;42.208;24.952;2022-07-01T05:15:52;6.37;;;3.70;;
33553;SDS011;19885;42.208;24.952;2022-07-01T05:18:18;5.40;;;4.30;;
33553;SDS011;19885;42.208;24.952;2022-07-01T05:21:02;12.20;;;4.23;;
33553;SDS011;19885;42.208;24.952;2022-07-01T05:23:46;6.73;;;3.87;;
33553;SDS011;19885;42.208;24.952;2022-07-01T05:26:11;11.97;;;3.40;;
33553;SDS011;19885;42.208;24.952;2022-07-01T05:28:41;8.20;;;3.90;;
33553;SDS011;19885;42.208;24.952;2022-07-01T05:31:08;8.93;;;4.10;;
33553;SDS011;19885;42.208;24.952;2022-07-01T05:33:34;10.17;;;3.90;;
33553;SDS011;19885;42.208;24.952;2022-07-01T05:35:59;8.13;;;4.00;;
33553;SDS011;19885;42.208;24.952;2022-07-01T05:38:26;6.50;;;3.80;;
33553;SDS011;19885;42.208;24.952;2022-07-01T05:40:52;3.73;;;3.13;;
33553;SDS011;19885;42.208;24.952;2022-07-01T05:43:18;8.17;;;4.77;;
33553;SDS011;19885;42.208;24.952;2022-07-01T05:45:45;6.67;;;3.17;;
33553;SDS011;19885;42.208;24.952;2022-07-01T05:48:10;7.83;;;4.07;;
33553;SDS011;19885;42.208;24.952;2022-07-01T05:50:36;3.50;;;3.13;;
33553;SDS011;19885;42.208;24.952;2022-07-01T05:53:01;5.60;;;3.17;;
33553;SDS011;19885;42.208;24.952;2022-07-01T05:55:27;6.47;;;4.50;;
33553;SDS011;19885;42.208;24.952;2022-07-01T05:57:53;11.95;;;3.38;;
33553;SDS011;19885;42.208;24.952;2022-07-01T06:00:19;10.82;;;3.30;;
33553;SDS011;19885;42.208;24.952;2022-07-01T06:02:47;7.80;;;3.15;;
33553;SDS011;19885;42.208;24.952;2022-07-01T06:05:12;4.88;;;3.35;;
33553;SDS011;19885;42.208;24.952;2022-07-01T06:07:39;9.73;;;3.40;;
33553;SDS011;19885;42.208;24.952;2022-07-01T06:10:06;3.90;;;3.42;;
33553;SDS011;19885;42.208;24.952;2022-07-01T06:12:37;4.10;;;2.42;;
33553;SDS011;19885;42.208;24.952;2022-07-01T06:15:04;4.78;;;2.60;;
33553;SDS011;19885;42.208;24.952;2022-07-01T06:17:31;2.83;;;1.77;;
33553;SDS011;19885;42.208;24.952;2022-07-01T06:19:57;12.13;;;3.03;;
33553;SDS011;19885;42.208;24.952;2022-07-01T06:22:22;6.75;;;3.75;;
33553;SDS011;19885;42.208;24.952;2022-07-01T06:24:48;8.43;;;3.20;;
33553;SDS011;19885;42.208;24.952;2022-07-01T06:27:13;3.70;;;2.60;;
33553;SDS011;19885;42.208;24.952;2022-07-01T06:29:39;6.93;;;3.33;;
33553;SDS011;19885;42.208;24.952;2022-07-01T06:32:07;12.32;;;3.72;;
33553;SDS011;19885;42.208;24.952;2022-07-01T06:34:34;3.50;;;3.08;;
33553;SDS011;19885;42.208;24.952;2022-07-01T06:37:00;6.38;;;3.17;;
33553;SDS011;19885;42.208;24.952;2022-07-01T06:39:27;5.75;;;3.75;;
33553;SDS011;19885;42.208;24.952;2022-07-01T06:41:53;13.30;;;4.13;;
33553;SDS011;19885;42.208;24.952;2022-07-01T06:44:18;12.00;;;3.53;;
33553;SDS011;19885;42.208;24.952;2022-07-01T06:46:44;8.02;;;4.65;;
33553;SDS011;19885;42.208;24.952;2022-07-01T06:49:10;8.15;;;3.47;;
33553;SDS011;19885;42.208;24.952;2022-07-01T06:51:35;6.40;;;3.03;;
33553;SDS011;19885;42.208;24.952;2022-07-01T06:54:01;8.02;;;3.55;;
33553;SDS011;19885;42.208;24.952;2022-07-01T06:56:27;2.67;;;2.45;;
33553;SDS011;19885;42.208;24.952;2022-07-01T06:58:52;5.55;;;3.35;;
33553;SDS011;19885;42.208;24.952;2022-07-01T07:01:18;6.60;;;3.15;;
33553;SDS011;19885;42.208;24.952;2022-07-01T07:03:46;7.20;;;3.00;;
33553;SDS011;19885;42.208;24.952;2022-07-01T07:06:12;2.80;;;2.58;;
33553;SDS011;19885;42.208;24.952;2022-07-01T07:08:40;3.53;;;2.30;;
33553;SDS011;19885;42.208;24.952;2022-07-01T07:11:06;3.25;;;2.67;;
33553;SDS011;19885;42.208;24.952;2022-07-01T07:13:34;12.15;;;2.97;;
33553;SDS011;19885;42.208;24.952;2022-07-01T07:16:00;6.22;;;3.33;;
33553;SDS011;19885;42.208;24.952;2022-07-01T07:18:25;3.60;;;2.00;;
33553;SDS011;19885;42.208;24.952;2022-07-01T07:20:51;8.20;;;2.10;;
33553;SDS011;19885;42.208;24.952;2022-07-01T07:23:16;4.60;;;2.92;;
33553;SDS011;19885;42.208;24.952;2022-07-01T07:25:44;3.40;;;2.90;;
33553;SDS011;19885;42.208;24.952;2022-07-01T07:28:10;3.20;;;2.72;;
33553;SDS011;19885;42.208;24.952;2022-07-01T07:30:35;13.60;;;2.47;;
33553;SDS011;19885;42.208;24.952;2022-07-01T07:33:01;8.25;;;2.10;;
33553;SDS011;19885;42.208;24.952;2022-07-01T07:35:26;5.45;;;2.85;;
33553;SDS011;19885;42.208;24.952;2022-07-01T07:37:52;3.90;;;2.58;;
33553;SDS011;19885;42.208;24.952;2022-07-01T07:40:17;12.30;;;2.80;;
33553;SDS011;19885;42.208;24.952;2022-07-01T07:42:44;8.95;;;3.08;;
33553;SDS011;19885;42.208;24.952;2022-07-01T07:45:11;5.15;;;2.70;;
33553;SDS011;19885;42.208;24.952;2022-07-01T07:47:41;3.72;;;2.78;;
33553;SDS011;19885;42.208;24.952;2022-07-01T07:50:08;8.10;;;2.88;;
33553;SDS011;19885;42.208;24.952;2022-07-01T07:52:36;7.55;;;2.33;;
33553;SDS011;19885;42.208;24.952;2022-07-01T07:55:03;6.10;;;2.63;;
33553;SDS011;19885;42.208;24.952;2022-07-01T07:57:30;6.10;;;2.33;;
33553;SDS011;19885;42.208;24.952;2022-07-01T07:59:56;12.13;;;1.98;;
33553;SDS011;19885;42.208;24.952;2022-07-01T08:02:21;9.68;;;3.83;;
33553;SDS011;19885;42.208;24.952;2022-07-01T08:04:47;4.47;;;2.88;;
33553;SDS011;19885;42.208;24.952;2022-07-01T08:07:15;15.68;;;2.95;;
33553;SDS011;19885;42.208;24.952;2022-07-01T08:09:41;3.40;;;2.20;;
33553;SDS011;19885;42.208;24.952;2022-07-01T08:12:11;3.67;;;2.80;;
33553;SDS011;19885;42.208;24.952;2022-07-01T08:14:37;4.53;;;2.03;;
33553;SDS011;19885;42.208;24.952;2022-07-01T08:17:03;5.18;;;2.28;;
33553;SDS011;19885;42.208;24.952;2022-07-01T08:19:29;3.42;;;1.88;;
33553;SDS011;19885;42.208;24.952;2022-07-01T08:21:54;5.93;;;2.20;;
33553;SDS011;19885;42.208;24.952;2022-07-01T08:24:20;3.25;;;2.15;;
33553;SDS011;19885;42.208;24.952;2022-07-01T08:26:45;5.80;;;3.10;;
33553;SDS011;19885;42.208;24.952;2022-07-01T08:29:11;4.53;;;2.40;;
33553;SDS011;19885;42.208;24.952;2022-07-01T08:31:36;2.88;;;2.13;;
33553;SDS011;19885;42.208;24.952;2022-07-01T08:34:04;3.88;;;2.53;;
33553;SDS011;19885;42.208;24.952;2022-07-01T08:36:32;2.40;;;2.00;;
33553;SDS011;19885;42.208;24.952;2022-07-01T08:38:58;3.95;;;2.00;;
33553;SDS011;19885;42.208;24.952;2022-07-01T08:41:24;5.40;;;2.50;;
33553;SDS011;19885;42.208;24.952;2022-07-01T08:43:50;6.70;;;2.60;;
33553;SDS011;19885;42.208;24.952;2022-07-01T08:46:15;4.97;;;2.72;;
33553;SDS011;19885;42.208;24.952;2022-07-01T08:48:42;5.20;;;2.53;;
33553;SDS011;19885;42.208;24.952;2022-07-01T08:51:08;3.47;;;2.55;;
33553;SDS011;19885;42.208;24.952;2022-07-01T08:53:34;4.93;;;2.38;;
33553;SDS011;19885;42.208;24.952;2022-07-01T08:56:03;5.57;;;2.40;;
33553;SDS011;19885;42.208;24.952;2022-07-01T08:58:48;13.23;;;2.47;;
33553;SDS011;19885;42.208;24.952;2022-07-01T09:01:18;12.93;;;2.40;;
33553;SDS011;19885;42.208;24.952;2022-07-01T09:03:52;3.22;;;1.75;;
33553;SDS011;19885;42.208;24.952;2022-07-01T09:06:20;5.50;;;3.17;;
33553;SDS011;19885;42.208;24.952;2022-07-01T09:08:47;3.67;;;2.38;;
33553;SDS011;19885;42.208;24.952;2022-07-01T09:11:18;7.70;;;2.25;;
33553;SDS011;19885;42.208;24.952;2022-07-01T09:13:45;1.98;;;1.65;;
33553;SDS011;19885;42.208;24.952;2022-07-01T09:19:14;4.05;;;2.67;;
33553;SDS011;19885;42.208;24.952;2022-07-01T09:21:41;6.32;;;2.72;;
33553;SDS011;19885;42.208;24.952;2022-07-01T09:24:28;6.07;;;1.98;;
33553;SDS011;19885;42.208;24.952;2022-07-01T09:29:36;6.40;;;2.55;;
33553;SDS011;19885;42.208;24.952;2022-07-01T09:32:06;5.32;;;2.88;;
33553;SDS011;19885;42.208;24.952;2022-07-01T09:34:54;9.27;;;3.10;;
33553;SDS011;19885;42.208;24.952;2022-07-01T09:37:19;3.60;;;1.85;;
33553;SDS011;19885;42.208;24.952;2022-07-01T09:39:47;5.07;;;2.70;;
33553;SDS011;19885;42.208;24.952;2022-07-01T09:42:14;8.07;;;2.70;;
33553;SDS011;19885;42.208;24.952;2022-07-01T09:45:03;5.47;;;2.53;;
33553;SDS011;19885;42.208;24.952;2022-07-01T09:47:33;5.15;;;2.22;;
33553;SDS011;19885;42.208;24.952;2022-07-01T09:50:01;12.95;;;2.72;;
33553;SDS011;19885;42.208;24.952;2022-07-01T09:52:28;6.38;;;2.20;;
33553;SDS011;19885;42.208;24.952;2022-07-01T09:54:54;7.10;;;2.72;;
33553;SDS011;19885;42.208;24.952;2022-07-01T09:57:20;8.13;;;3.47;;
33553;SDS011;19885;42.208;24.952;2022-07-01T09:59:47;5.57;;;2.63;;
33553;SDS011;19885;42.208;24.952;2022-07-01T10:02:14;8.35;;;2.67;;
33553;SDS011;19885;42.208;24.952;2022-07-01T10:04:46;6.85;;;2.63;;
33553;SDS011;19885;42.208;24.952;2022-07-01T10:13:24;7.57;;;2.30;;
33553;SDS011;19885;42.208;24.952;2022-07-01T10:15:52;6.43;;;2.35;;
33553;SDS011;19885;42.208;24.952;2022-07-01T10:18:26;4.00;;;2.25;;
33553;SDS011;19885;42.208;24.952;2022-07-01T10:20:53;7.53;;;3.10;;
33553;SDS011;19885;42.208;24.952;2022-07-01T10:23:24;6.90;;;2.97;;
33553;SDS011;19885;42.208;24.952;2022-07-01T10:25:53;5.68;;;2.80;;
33553;SDS011;19885;42.208;24.952;2022-07-01T10:28:27;13.25;;;2.60;;
33553;SDS011;19885;42.208;24.952;2022-07-01T10:31:04;7.90;;;1.85;;
33553;SDS011;19885;42.208;24.952;2022-07-01T10:36:31;5.55;;;2.40;;
33553;SDS011;19885;42.208;24.952;2022-07-01T10:41:26;9.88;;;2.78;;
33553;SDS011;19885;42.208;24.952;2022-07-01T10:43:54;7.03;;;2.42;;
33553;SDS011;19885;42.208;24.952;2022-07-01T10:46:36;6.32;;;3.10;;
33553;SDS011;19885;42.208;24.952;2022-07-01T10:49:02;4.75;;;2.45;;
33553;SDS011;19885;42.208;24.952;2022-07-01T10:59:41;3.55;;;2.70;;
33553;SDS011;19885;42.208;24.952;2022-07-01T11:02:14;3.55;;;2.58;;
33553;SDS011;19885;42.208;24.952;2022-07-01T11:04:40;11.73;;;2.60;;
33553;SDS011;19885;42.208;24.952;2022-07-01T11:07:07;3.15;;;2.53;;
33553;SDS011;19885;42.208;24.952;2022-07-01T11:09:33;3.78;;;2.70;;
33553;SDS011;19885;42.208;24.952;2022-07-01T11:11:59;3.70;;;2.83;;
33553;SDS011;19885;42.208;24.952;2022-07-01T11:14:26;2.72;;;2.38;;
33553;SDS011;19885;42.208;24.952;2022-07-01T11:16:52;7.63;;;2.28;;
33553;SDS011;19885;42.208;24.952;2022-07-01T11:19:19;5.22;;;2.50;;
33553;SDS011;19885;42.208;24.952;2022-07-01T11:21:49;4.40;;;2.30;;
33553;SDS011;19885;42.208;24.952;2022-07-01T11:24:19;3.00;;;2.60;;
33553;SDS011;19885;42.208;24.952;2022-07-01T11:26:46;5.35;;;2.97;;
33553;SDS011;19885;42.208;24.952;2022-07-01T11:29:12;4.80;;;2.40;;
33553;SDS011;19885;42.208;24.952;2022-07-01T11:31:50;5.47;;;3.63;;
33553;SDS011;19885;42.208;24.952;2022-07-01T11:34:16;5.00;;;2.75;;
33553;SDS011;19885;42.208;24.952;2022-07-01T11:36:43;8.10;;;3.08;;
33553;SDS011;19885;42.208;24.952;2022-07-01T11:39:28;4.07;;;2.22;;
33553;SDS011;19885;42.208;24.952;2022-07-01T11:42:05;4.38;;;2.97;;
33553;SDS011;19885;42.208;24.952;2022-07-01T11:44:39;4.82;;;2.33;;
33553;SDS011;19885;42.208;24.952;2022-07-01T11:47:07;3.28;;;2.80;;
33553;SDS011;19885;42.208;24.952;2022-07-01T11:49:43;6.22;;;2.92;;
33553;SDS011;19885;42.208;24.952;2022-07-01T11:52:14;5.13;;;2.42;;
33553;SDS011;19885;42.208;24.952;2022-07-01T11:54:41;4.88;;;2.72;;
33553;SDS011;19885;42.208;24.952;2022-07-01T11:57:12;3.05;;;2.30;;
33553;SDS011;19885;42.208;24.952;2022-07-01T11:59:42;4.13;;;1.98;;
33553;SDS011;19885;42.208;24.952;2022-07-01T12:02:10;2.53;;;1.80;;
33553;SDS011;19885;42.208;24.952;2022-07-01T12:04:39;3.95;;;2.97;;
33553;SDS011;19885;42.208;24.952;2022-07-01T12:07:05;4.38;;;2.90;;
33553;SDS011;19885;42.208;24.952;2022-07-01T12:09:32;7.45;;;2.75;;
33553;SDS011;19885;42.208;24.952;2022-07-01T12:11:58;6.63;;;2.67;;
33553;SDS011;19885;42.208;24.952;2022-07-01T12:14:29;5.10;;;3.15;;
33553;SDS011;19885;42.208;24.952;2022-07-01T12:16:57;10.70;;;3.10;;
33553;SDS011;19885;42.208;24.952;2022-07-01T12:22:05;3.95;;;2.45;;
33553;SDS011;19885;42.208;24.952;2022-07-01T12:24:35;3.80;;;2.53;;
33553;SDS011;19885;42.208;24.952;2022-07-01T12:27:05;3.80;;;2.83;;
33553;SDS011;19885;42.208;24.952;2022-07-01T12:32:28;3.42;;;2.30;;
33553;SDS011;19885;42.208;24.952;2022-07-01T12:35:01;10.52;;;2.75;;
33553;SDS011;19885;42.208;24.952;2022-07-01T12:37:51;4.38;;;2.45;;
33553;SDS011;19885;42.208;24.952;2022-07-01T12:40:24;7.35;;;2.75;;
33553;SDS011;19885;42.208;24.952;2022-07-01T12:42:53;4.28;;;2.65;;
33553;SDS011;19885;42.208;24.952;2022-07-01T12:45:23;6.32;;;2.58;;
33553;SDS011;19885;42.208;24.952;2022-07-01T12:47:56;6.00;;;2.85;;
33553;SDS011;19885;42.208;24.952;2022-07-01T12:55:26;3.40;;;2.53;;
33553;SDS011;19885;42.208;24.952;2022-07-01T12:57:53;11.32;;;2.80;;
33553;SDS011;19885;42.208;24.952;2022-07-01T13:00:24;3.58;;;2.70;;
33553;SDS011;19885;42.208;24.952;2022-07-01T13:02:53;3.35;;;2.60;;
33553;SDS011;19885;42.208;24.952;2022-07-01T13:05:20;11.68;;;2.42;;
33553;SDS011;19885;42.208;24.952;2022-07-01T13:07:46;5.07;;;3.20;;
33553;SDS011;19885;42.208;24.952;2022-07-01T13:10:13;8.95;;;2.40;;
33553;SDS011;19885;42.208;24.952;2022-07-01T13:12:39;3.60;;;3.10;;
33553;SDS011;19885;42.208;24.952;2022-07-01T13:15:05;3.40;;;2.65;;
33553;SDS011;19885;42.208;24.952;2022-07-01T13:17:31;5.82;;;2.78;;
33553;SDS011;19885;42.208;24.952;2022-07-01T13:19:57;4.93;;;2.78;;
33553;SDS011;19885;42.208;24.952;2022-07-01T13:22:23;2.42;;;2.22;;
33553;SDS011;19885;42.208;24.952;2022-07-01T13:24:48;3.00;;;2.53;;
33553;SDS011;19885;42.208;24.952;2022-07-01T13:27:14;5.53;;;2.35;;
33553;SDS011;19885;42.208;24.952;2022-07-01T13:29:40;3.67;;;2.58;;
33553;SDS011;19885;42.208;24.952;2022-07-01T13:32:06;2.90;;;1.98;;
33553;SDS011;19885;42.208;24.952;2022-07-01T13:34:35;2.85;;;2.30;;
33553;SDS011;19885;42.208;24.952;2022-07-01T13:37:00;6.10;;;2.47;;
33553;SDS011;19885;42.208;24.952;2022-07-01T13:39:26;4.88;;;2.50;;
33553;SDS011;19885;42.208;24.952;2022-07-01T13:41:52;9.93;;;2.85;;
33553;SDS011;19885;42.208;24.952;2022-07-01T13:44:17;7.65;;;2.35;;
33553;SDS011;19885;42.208;24.952;2022-07-01T13:46:43;3.13;;;2.72;;
33553;SDS011;19885;42.208;24.952;2022-07-01T13:49:08;4.22;;;2.20;;
33553;SDS011;19885;42.208;24.952;2022-07-01T13:51:34;5.07;;;2.20;;
33553;SDS011;19885;42.208;24.952;2022-07-01T13:54:00;3.47;;;2.15;;
33553;SDS011;19885;42.208;24.952;2022-07-01T13:56:26;3.70;;;2.50;;
33553;SDS011;19885;42.208;24.952;2022-07-01T13:58:52;5.22;;;2.30;;
33553;SDS011;19885;42.208;24.952;2022-07-01T14:01:19;3.45;;;2.33;;
33553;SDS011;19885;42.208;24.952;2022-07-01T14:03:48;2.55;;;2.25;;
33553;SDS011;19885;42.208;24.952;2022-07-01T14:06:13;7.00;;;3.10;;
33553;SDS011;19885;42.208;24.952;2022-07-01T14:08:39;4.88;;;2.53;;
33553;SDS011;19885;42.208;24.952;2022-07-01T14:11:05;11.60;;;2.75;;
33553;SDS011;19885;42.208;24.952;2022-07-01T14:13:30;2.10;;;1.85;;
33553;SDS011;19885;42.208;24.952;2022-07-01T14:15:56;5.30;;;1.98;;
33553;SDS011;19885;42.208;24.952;2022-07-01T14:18:21;9.50;;;2.58;;
33553;SDS011;19885;42.208;24.952;2022-07-01T14:20:47;4.93;;;2.13;;
33553;SDS011;19885;42.208;24.952;2022-07-01T14:23:13;4.22;;;2.13;;
33553;SDS011;19885;42.208;24.952;2022-07-01T14:25:39;4.32;;;1.95;;
33553;SDS011;19885;42.208;24.952;2022-07-01T14:28:05;1.83;;;1.65;;
33553;SDS011;19885;42.208;24.952;2022-07-01T14:30:32;4.70;;;1.73;;
33553;SDS011;19885;42.208;24.952;2022-07-01T14:32:58;3.25;;;2.03;;
33553;SDS011;19885;42.208;24.952;2022-07-01T14:35:25;3.03;;;1.92;;
33553;SDS011;19885;42.208;24.952;2022-07-01T14:37:51;2.38;;;1.85;;
33553;SDS011;19885;42.208;24.952;2022-07-01T14:40:16;3.55;;;2.00;;
33553;SDS011;19885;42.208;24.952;2022-07-01T14:42:45;1.92;;;1.83;;
33553;SDS011;19885;42.208;24.952;2022-07-01T14:45:13;2.40;;;1.95;;
33553;SDS011;19885;42.208;24.952;2022-07-01T14:47:42;4.55;;;2.00;;
33553;SDS011;19885;42.208;24.952;2022-07-01T14:50:09;5.60;;;2.28;;
33553;SDS011;19885;42.208;24.952;2022-07-01T14:52:35;7.70;;;2.67;;
33553;SDS011;19885;42.208;24.952;2022-07-01T14:55:02;2.33;;;1.92;;
33553;SDS011;19885;42.208;24.952;2022-07-01T14:57:28;4.13;;;2.55;;
33553;SDS011;19885;42.208;24.952;2022-07-01T14:59:54;1.58;;;1.48;;
33553;SDS011;19885;42.208;24.952;2022-07-01T15:02:20;2.22;;;1.88;;
33553;SDS011;19885;42.208;24.952;2022-07-01T15:04:46;6.13;;;2.03;;
33553;SDS011;19885;42.208;24.952;2022-07-01T15:07:12;1.95;;;1.75;;
33553;SDS011;19885;42.208;24.952;2022-07-01T15:09:39;3.30;;;1.50;;
33553;SDS011;19885;42.208;24.952;2022-07-01T15:12:05;2.78;;;2.03;;
33553;SDS011;19885;42.208;24.952;2022-07-01T15:14:31;3.20;;;2.40;;
33553;SDS011;19885;42.208;24.952;2022-07-01T15:16:57;3.00;;;2.17;;